createdAt,value
2017-03-25T00:01:05.260Z,0
2017-03-25T00:02:15.182Z,0
2017-03-25T00:03:25.498Z,0
2017-03-25T00:04:35.408Z,0
2017-03-25T00:05:45.668Z,0
2017-03-25T00:06:55.311Z,0
2017-03-25T00:08:04.926Z,0
2017-03-25T00:09:15.241Z,0
2017-03-25T00:10:25.151Z,0
2017-03-25T00:11:35.076Z,0
2017-03-25T00:12:45.319Z,0
2017-03-25T00:13:54.933Z,0
2017-03-25T00:15:04.687Z,0
2017-03-25T00:16:14.308Z,0
2017-03-25T00:17:24.244Z,0
2017-03-25T00:18:34.168Z,0
2017-03-25T00:19:43.209Z,0
2017-03-25T00:20:53.618Z,0
2017-03-25T00:22:03.849Z,0
2017-03-25T00:23:13.478Z,0
2017-03-25T00:24:23.420Z,0
2017-03-25T00:25:33.643Z,0
2017-03-25T00:26:43.715Z,0
2017-03-25T00:27:53.310Z,0
2017-03-25T00:29:03.213Z,0
2017-03-25T00:30:13.444Z,0
2017-03-25T00:31:23.060Z,0
2017-03-25T00:32:33.438Z,0
2017-03-25T00:33:43.703Z,0
2017-03-25T00:34:53.921Z,0
2017-03-25T00:36:03.842Z,0
2017-03-25T00:37:13.765Z,0
2017-03-25T00:38:23.834Z,0
2017-03-25T00:39:40.034Z,0
2017-03-25T00:40:50.263Z,0
2017-03-25T00:42:00.172Z,0
2017-03-25T00:43:10.390Z,0
2017-03-25T00:44:20.139Z,0
2017-03-25T00:45:30.096Z,0
2017-03-25T00:46:40.017Z,0
2017-03-25T00:47:49.310Z,0
2017-03-25T00:48:58.920Z,0
2017-03-25T00:50:08.946Z,0
2017-03-25T00:51:18.882Z,0
2017-03-25T00:52:28.554Z,0
2017-03-25T00:53:38.777Z,0
2017-03-25T00:54:48.400Z,0
2017-03-25T00:55:58.493Z,0
2017-03-25T00:57:08.730Z,0
2017-03-25T00:58:18.957Z,0
2017-03-25T00:59:28.583Z,0
2017-03-25T01:00:38.526Z,0
2017-03-25T01:01:49.676Z,0
2017-03-25T01:02:59.360Z,0
2017-03-25T01:04:09.288Z,0
2017-03-25T01:05:18.918Z,0
2017-03-25T01:06:28.859Z,0
2017-03-25T01:07:39.044Z,0
2017-03-25T01:08:48.358Z,0
2017-03-25T01:09:57.676Z,0
2017-03-25T01:11:07.615Z,0
2017-03-25T01:12:17.257Z,0
2017-03-25T01:13:27.189Z,0
2017-03-25T01:14:36.829Z,0
2017-03-25T01:15:47.090Z,0
2017-03-25T01:16:57.336Z,0
2017-03-25T01:18:06.654Z,0
2017-03-25T01:19:16.161Z,0
2017-03-25T01:20:26.094Z,0
2017-03-25T01:21:35.723Z,0
2017-03-25T01:22:45.344Z,0
2017-03-25T01:23:55.282Z,0
2017-03-25T01:25:05.001Z,0
2017-03-25T01:26:14.916Z,0
2017-03-25T01:27:25.207Z,0
2017-03-25T01:28:35.449Z,0
2017-03-25T01:29:45.388Z,0
2017-03-25T01:30:55.761Z,0
2017-03-25T01:32:05.684Z,0
2017-03-25T01:33:15.601Z,0
2017-03-25T01:34:25.542Z,0
2017-03-25T01:35:35.173Z,0
2017-03-25T01:36:45.582Z,0
2017-03-25T01:37:55.810Z,0
2017-03-25T01:39:05.419Z,0
2017-03-25T01:40:15.057Z,0
2017-03-25T01:41:25.291Z,0
2017-03-25T01:42:35.485Z,0
2017-03-25T01:43:45.410Z,0
2017-03-25T01:44:55.636Z,0
2017-03-25T01:46:05.248Z,0
2017-03-25T01:47:14.862Z,0
2017-03-25T01:48:25.225Z,0
2017-03-25T01:49:35.446Z,0
2017-03-25T01:50:45.367Z,0
2017-03-25T01:51:55.287Z,0
2017-03-25T01:53:05.207Z,0
2017-03-25T01:54:15.274Z,0
2017-03-25T01:55:25.500Z,0
2017-03-25T01:56:35.395Z,0
2017-03-25T01:57:45.614Z,0
2017-03-25T01:58:55.232Z,0
2017-03-25T02:00:04.873Z,0
2017-03-25T02:01:14.827Z,0
2017-03-25T02:02:25.046Z,0
2017-03-25T02:03:35.256Z,0
2017-03-25T02:04:45.161Z,0
2017-03-25T02:05:55.317Z,0
2017-03-25T02:07:04.926Z,0
2017-03-25T02:08:15.138Z,0
2017-03-25T02:09:25.046Z,0
2017-03-25T02:10:34.961Z,0
2017-03-25T02:11:45.182Z,0
2017-03-25T02:12:55.076Z,0
2017-03-25T02:14:05.315Z,0
2017-03-25T02:15:15.230Z,0
2017-03-25T02:16:24.518Z,0
2017-03-25T02:17:34.837Z,0
2017-03-25T02:18:44.742Z,0
2017-03-25T02:19:54.354Z,0
2017-03-25T02:21:03.943Z,0
2017-03-25T02:22:13.551Z,0
2017-03-25T02:23:23.165Z,0
2017-03-25T02:24:32.771Z,0
2017-03-25T02:25:42.698Z,0
2017-03-25T02:26:52.902Z,0
2017-03-25T02:28:02.808Z,0
2017-03-25T02:29:13.179Z,0
2017-03-25T02:30:23.401Z,0
2017-03-25T02:31:33.325Z,0
2017-03-25T02:32:43.547Z,0
2017-03-25T02:33:53.152Z,0
2017-03-25T02:35:03.202Z,0
2017-03-25T02:36:12.797Z,0
2017-03-25T02:37:23.047Z,0
2017-03-25T02:38:32.999Z,0
2017-03-25T02:39:42.626Z,0
2017-03-25T02:40:52.332Z,0
2017-03-25T02:42:02.576Z,0
2017-03-25T02:43:12.540Z,0
2017-03-25T02:44:22.172Z,0
2017-03-25T02:45:31.554Z,0
2017-03-25T02:46:41.612Z,0
2017-03-25T02:47:51.261Z,0
2017-03-25T02:49:00.894Z,0
2017-03-25T02:50:10.529Z,0
2017-03-25T02:51:20.176Z,0
2017-03-25T02:52:29.990Z,0
2017-03-25T02:53:39.964Z,0
2017-03-25T02:54:50.221Z,0
2017-03-25T02:56:00.190Z,0
2017-03-25T02:57:10.445Z,0
2017-03-25T02:58:20.851Z,0
2017-03-25T02:59:31.150Z,0
2017-03-25T03:00:40.626Z,0
2017-03-25T03:01:50.903Z,0
2017-03-25T03:03:01.250Z,0
2017-03-25T03:04:11.056Z,0
2017-03-25T03:05:21.294Z,0
2017-03-25T03:06:31.228Z,0
2017-03-25T03:07:41.177Z,0
2017-03-25T03:08:51.139Z,0
2017-03-25T03:10:01.763Z,0
2017-03-25T03:11:11.416Z,0
2017-03-25T03:12:21.697Z,0
2017-03-25T03:13:31.636Z,0
2017-03-25T03:14:41.594Z,0
2017-03-25T03:15:51.759Z,0
2017-03-25T03:17:01.993Z,0
2017-03-25T03:18:12.622Z,0
2017-03-25T03:19:22.554Z,0
2017-03-25T03:20:32.232Z,0
2017-03-25T03:21:42.326Z,0
2017-03-25T03:22:52.275Z,0
2017-03-25T03:24:02.551Z,0
2017-03-25T03:25:12.210Z,0
2017-03-25T03:26:21.829Z,0
2017-03-25T03:27:32.548Z,0
2017-03-25T03:28:42.816Z,0
2017-03-25T03:29:53.081Z,0
2017-03-25T03:31:03.330Z,0
2017-03-25T03:32:12.985Z,0
2017-03-25T03:33:23.145Z,0
2017-03-25T03:34:33.445Z,0
2017-03-25T03:35:43.403Z,0
2017-03-25T03:36:53.677Z,0
2017-03-25T03:38:03.639Z,0
2017-03-25T03:39:14.055Z,0
2017-03-25T03:40:23.686Z,0
2017-03-25T03:41:33.641Z,0
2017-03-25T03:42:43.608Z,0
2017-03-25T03:43:53.855Z,0
2017-03-25T03:45:04.420Z,0
2017-03-25T03:46:14.070Z,0
2017-03-25T03:47:23.994Z,0
2017-03-25T03:48:34.238Z,0
2017-03-25T03:49:44.491Z,0
2017-03-25T03:50:54.714Z,0
2017-03-25T03:52:04.644Z,0
2017-03-25T03:53:14.900Z,0
2017-03-25T03:54:24.542Z,0
2017-03-25T03:55:34.192Z,0
2017-03-25T03:56:44.268Z,0
2017-03-25T03:57:54.233Z,0
2017-03-25T03:59:04.194Z,0
2017-03-25T04:00:14.142Z,0
2017-03-25T04:01:24.394Z,0
2017-03-25T04:02:34.615Z,0
2017-03-25T04:03:44.238Z,0
2017-03-25T04:04:54.476Z,0
2017-03-25T04:06:04.426Z,0
2017-03-25T04:07:14.036Z,0
2017-03-25T04:08:24.441Z,0
2017-03-25T04:09:34.376Z,0
2017-03-25T04:10:44.002Z,0
2017-03-25T04:11:53.637Z,0
2017-03-25T04:13:03.254Z,0
2017-03-25T04:14:13.668Z,0
2017-03-25T04:15:23.321Z,0
2017-03-25T04:16:33.557Z,0
2017-03-25T04:17:43.513Z,0
2017-03-25T04:18:53.805Z,0
2017-03-25T04:20:04.772Z,0
2017-03-25T04:21:15.030Z,0
2017-03-25T04:22:24.654Z,0
2017-03-25T04:23:34.911Z,0
2017-03-25T04:24:45.141Z,0
2017-03-25T04:25:55.062Z,0
2017-03-25T04:27:04.998Z,0
2017-03-25T04:28:14.928Z,0
2017-03-25T04:29:24.571Z,0
2017-03-25T04:30:34.199Z,0
2017-03-25T04:31:44.780Z,0
2017-03-25T04:32:55.039Z,0
2017-03-25T04:34:04.961Z,0
2017-03-25T04:35:14.598Z,0
2017-03-25T04:36:24.506Z,0
2017-03-25T04:37:35.195Z,0
2017-03-25T04:38:45.152Z,0
2017-03-25T04:39:55.119Z,0
2017-03-25T04:41:05.059Z,0
2017-03-25T04:42:14.682Z,0
2017-03-25T04:43:25.813Z,0
2017-03-25T04:44:35.134Z,0
2017-03-25T04:45:45.074Z,0
2017-03-25T04:46:55.027Z,0
2017-03-25T04:48:04.958Z,0
2017-03-25T04:49:14.994Z,0
2017-03-25T04:50:24.614Z,0
2017-03-25T04:51:34.538Z,0
2017-03-25T04:52:43.927Z,0
2017-03-25T04:53:53.844Z,0
2017-03-25T04:55:04.401Z,0
2017-03-25T04:56:14.373Z,0
2017-03-25T04:57:24.612Z,0
2017-03-25T04:58:34.548Z,0
2017-03-25T04:59:44.782Z,0
2017-03-25T05:00:55.415Z,0
2017-03-25T05:02:05.334Z,0
2017-03-25T05:03:14.956Z,0
2017-03-25T05:04:24.580Z,0
2017-03-25T05:05:34.535Z,0
2017-03-25T05:06:45.044Z,0
2017-03-25T05:07:55.328Z,0
2017-03-25T05:09:04.958Z,0
2017-03-25T05:10:14.902Z,0
2017-03-25T05:11:25.217Z,0
2017-03-25T05:12:35.216Z,0
2017-03-25T05:13:45.477Z,0
2017-03-25T05:14:55.434Z,0
2017-03-25T05:16:05.061Z,0
2017-03-25T05:17:15.303Z,0
2017-03-25T05:18:26.299Z,0
2017-03-25T05:19:36.533Z,0
2017-03-25T05:20:46.472Z,0
2017-03-25T05:21:55.776Z,0
2017-03-25T05:23:06.042Z,0
2017-03-25T05:24:16.517Z,0
2017-03-25T05:25:26.784Z,0
2017-03-25T05:26:36.744Z,0
2017-03-25T05:27:46.968Z,0
2017-03-25T05:28:56.603Z,0
2017-03-25T05:30:06.894Z,0
2017-03-25T05:31:17.121Z,0
2017-03-25T05:32:27.355Z,0
2017-03-25T05:33:37.295Z,0
2017-03-25T05:34:47.231Z,5
2017-03-25T05:35:57.515Z,5
2017-03-25T05:37:07.452Z,5
2017-03-25T05:38:17.786Z,5
2017-03-25T05:39:27.741Z,5
2017-03-25T05:40:37.656Z,5
2017-03-25T05:41:48.234Z,5
2017-03-25T05:42:57.894Z,5
2017-03-25T05:44:07.205Z,5
2017-03-25T05:45:17.202Z,5
2017-03-25T05:46:27.482Z,10
2017-03-25T05:47:37.420Z,10
2017-03-25T05:48:47.674Z,10
2017-03-25T05:49:57.320Z,10
2017-03-25T05:51:06.935Z,10
2017-03-25T05:52:16.884Z,10
2017-03-25T05:53:26.707Z,10
2017-03-25T05:54:36.956Z,15
2017-03-25T05:55:47.207Z,15
2017-03-25T05:56:57.491Z,15
2017-03-25T05:58:07.470Z,15
2017-03-25T05:59:16.937Z,15
2017-03-25T06:00:26.260Z,15
2017-03-25T06:01:35.938Z,15
2017-03-25T06:02:45.621Z,15
2017-03-25T06:03:55.878Z,20
2017-03-25T06:05:05.500Z,20
2017-03-25T06:06:15.142Z,20
2017-03-25T06:07:24.809Z,20
2017-03-25T06:08:35.081Z,20
2017-03-25T06:09:45.042Z,20
2017-03-25T06:10:54.969Z,20
2017-03-25T06:12:05.194Z,25
2017-03-25T06:13:14.800Z,25
2017-03-25T06:14:25.026Z,25
2017-03-25T06:15:34.919Z,25
2017-03-25T06:16:45.291Z,25
2017-03-25T06:17:55.218Z,25
2017-03-25T06:19:05.128Z,25
2017-03-25T06:20:14.752Z,25
2017-03-25T06:21:24.054Z,25
2017-03-25T06:22:34.370Z,25
2017-03-25T06:23:44.601Z,25
2017-03-25T06:24:54.518Z,25
2017-03-25T06:26:04.743Z,25
2017-03-25T06:27:14.361Z,25
2017-03-25T06:28:24.427Z,30
2017-03-25T06:29:34.335Z,30
2017-03-25T06:30:44.627Z,30
2017-03-25T06:31:55.063Z,30
2017-03-25T06:33:05.337Z,30
2017-03-25T06:34:15.911Z,30
2017-03-25T06:35:25.915Z,30
2017-03-25T06:36:35.832Z,30
2017-03-25T06:37:46.088Z,30
2017-03-25T06:38:56.336Z,30
2017-03-25T06:40:07.014Z,30
2017-03-25T06:41:16.917Z,30
2017-03-25T06:42:26.840Z,30
2017-03-25T06:43:37.078Z,30
2017-03-25T06:44:46.991Z,30
2017-03-25T06:45:58.318Z,30
2017-03-25T06:47:08.533Z,30
2017-03-25T06:48:18.756Z,30
2017-03-25T06:49:28.719Z,30
2017-03-25T06:50:38.947Z,30
2017-03-25T06:51:49.358Z,30
2017-03-25T06:52:59.584Z,30
2017-03-25T06:54:09.540Z,30
2017-03-25T06:55:18.848Z,30
2017-03-25T06:56:28.770Z,30
2017-03-25T06:57:39.044Z,30
2017-03-25T06:58:48.974Z,30
2017-03-25T06:59:58.614Z,35
2017-03-25T07:01:08.844Z,35
2017-03-25T07:02:18.793Z,35
2017-03-25T07:03:28.651Z,35
2017-03-25T07:04:38.877Z,35
2017-03-25T07:05:48.798Z,35
2017-03-25T07:06:57.817Z,35
2017-03-25T07:08:07.732Z,35
2017-03-25T07:09:17.527Z,35
2017-03-25T07:10:27.468Z,35
2017-03-25T07:11:37.394Z,35
2017-03-25T07:12:47.044Z,35
2017-03-25T07:13:57.284Z,35
2017-03-25T07:15:07.501Z,35
2017-03-25T07:16:17.410Z,35
2017-03-25T07:17:26.710Z,35
2017-03-25T07:18:36.316Z,35
2017-03-25T07:19:45.678Z,35
2017-03-25T07:20:55.638Z,35
2017-03-25T07:22:05.617Z,35
2017-03-25T07:23:15.541Z,35
2017-03-25T07:24:25.476Z,35
2017-03-25T07:25:35.107Z,35
2017-03-25T07:26:45.644Z,35
2017-03-25T07:27:55.251Z,35
2017-03-25T07:29:05.478Z,35
2017-03-25T07:30:15.699Z,35
2017-03-25T07:31:25.957Z,35
2017-03-25T07:32:35.417Z,35
2017-03-25T07:33:45.643Z,35
2017-03-25T07:34:55.567Z,35
2017-03-25T07:36:05.261Z,40
2017-03-25T07:37:15.178Z,40
2017-03-25T07:38:25.507Z,40
2017-03-25T07:39:35.740Z,40
2017-03-25T07:40:45.657Z,40
2017-03-25T07:41:55.252Z,40
2017-03-25T07:43:05.482Z,40
2017-03-25T07:44:15.960Z,35
2017-03-25T07:45:25.886Z,35
2017-03-25T07:46:36.111Z,35
2017-03-25T07:47:46.353Z,35
2017-03-25T07:48:56.578Z,35
2017-03-25T07:50:06.645Z,35
2017-03-25T07:51:16.257Z,35
2017-03-25T07:52:25.857Z,35
2017-03-25T07:53:35.159Z,35
2017-03-25T07:54:45.079Z,35
2017-03-25T07:55:55.093Z,35
2017-03-25T07:57:04.704Z,35
2017-03-25T07:58:14.642Z,35
2017-03-25T07:59:24.273Z,35
2017-03-25T08:00:33.958Z,35
2017-03-25T08:01:44.891Z,35
2017-03-25T08:02:55.201Z,35
2017-03-25T08:04:05.139Z,35
2017-03-25T08:05:15.356Z,35
2017-03-25T08:06:25.653Z,35
2017-03-25T08:07:36.223Z,35
2017-03-25T08:08:45.482Z,35
2017-03-25T08:09:56.107Z,35
2017-03-25T08:11:06.329Z,35
2017-03-25T08:12:16.555Z,35
2017-03-25T08:13:26.931Z,35
2017-03-25T08:14:36.848Z,35
2017-03-25T08:15:46.851Z,35
2017-03-25T08:16:56.770Z,35
2017-03-25T08:18:06.995Z,35
2017-03-25T08:19:17.522Z,35
2017-03-25T08:20:27.437Z,35
2017-03-25T08:21:37.353Z,35
2017-03-25T08:22:47.574Z,35
2017-03-25T08:23:57.498Z,35
2017-03-25T08:25:07.143Z,35
2017-03-25T08:26:15.853Z,35
2017-03-25T08:27:26.134Z,35
2017-03-25T08:28:36.107Z,35
2017-03-25T08:29:46.071Z,35
2017-03-25T08:30:56.601Z,35
2017-03-25T08:32:06.515Z,35
2017-03-25T08:33:16.734Z,35
2017-03-25T08:34:26.982Z,35
2017-03-25T08:35:36.948Z,35
2017-03-25T08:36:47.157Z,40
2017-03-25T08:37:56.140Z,40
2017-03-25T08:39:05.751Z,40
2017-03-25T08:40:15.054Z,40
2017-03-25T08:41:25.284Z,40
2017-03-25T08:42:35.579Z,40
2017-03-25T08:43:45.216Z,40
2017-03-25T08:44:55.537Z,40
2017-03-25T08:46:05.464Z,45
2017-03-25T08:47:15.691Z,45
2017-03-25T08:48:25.958Z,45
2017-03-25T08:49:36.184Z,45
2017-03-25T08:50:46.409Z,45
2017-03-25T08:51:56.318Z,45
2017-03-25T08:53:06.537Z,45
2017-03-25T08:54:15.987Z,45
2017-03-25T08:55:25.605Z,45
2017-03-25T08:56:35.541Z,45
2017-03-25T08:57:45.765Z,45
2017-03-25T08:58:56.008Z,45
2017-03-25T09:00:06.587Z,45
2017-03-25T09:01:16.210Z,45
2017-03-25T09:02:25.826Z,45
2017-03-25T09:03:35.444Z,45
2017-03-25T09:04:45.661Z,45
2017-03-25T09:05:55.873Z,45
2017-03-25T09:07:05.484Z,40
2017-03-25T09:08:15.722Z,40
2017-03-25T09:09:25.956Z,40
2017-03-25T09:10:35.876Z,40
2017-03-25T09:11:46.092Z,40
2017-03-25T09:12:56.023Z,40
2017-03-25T09:14:05.638Z,40
2017-03-25T09:15:14.935Z,40
2017-03-25T09:16:24.874Z,40
2017-03-25T09:17:35.348Z,40
2017-03-25T09:18:45.282Z,40
2017-03-25T09:19:55.183Z,40
2017-03-25T09:21:05.413Z,40
2017-03-25T09:22:15.322Z,40
2017-03-25T09:23:25.486Z,40
2017-03-25T09:24:35.404Z,40
2017-03-25T09:25:45.629Z,40
2017-03-25T09:26:55.536Z,40
2017-03-25T09:28:05.756Z,40
2017-03-25T09:29:16.123Z,40
2017-03-25T09:30:26.374Z,40
2017-03-25T09:31:36.304Z,40
2017-03-25T09:32:46.523Z,40
2017-03-25T09:33:56.442Z,40
2017-03-25T09:35:06.397Z,40
2017-03-25T09:36:16.035Z,35
2017-03-25T09:37:25.959Z,35
2017-03-25T09:38:36.575Z,35
2017-03-25T09:39:46.780Z,35
2017-03-25T09:40:57.310Z,35
2017-03-25T09:42:07.548Z,35
2017-03-25T09:43:17.151Z,35
2017-03-25T09:44:27.058Z,35
2017-03-25T09:45:37.274Z,35
2017-03-25T09:46:47.784Z,35
2017-03-25T09:47:57.995Z,35
2017-03-25T09:49:08.222Z,35
2017-03-25T09:50:18.138Z,35
2017-03-25T09:51:28.356Z,35
2017-03-25T09:52:38.567Z,35
2017-03-25T09:53:48.481Z,35
2017-03-25T09:54:58.697Z,35
2017-03-25T09:56:08.924Z,30
2017-03-25T09:57:18.845Z,30
2017-03-25T09:58:29.050Z,30
2017-03-25T09:59:38.958Z,30
2017-03-25T10:00:48.858Z,30
2017-03-25T10:01:58.150Z,30
2017-03-25T10:03:08.065Z,30
2017-03-25T10:04:18.092Z,30
2017-03-25T10:05:28.016Z,30
2017-03-25T10:06:38.239Z,30
2017-03-25T10:07:48.161Z,30
2017-03-25T10:08:58.093Z,30
2017-03-25T10:10:08.251Z,30
2017-03-25T10:11:17.563Z,30
2017-03-25T10:12:27.776Z,30
2017-03-25T10:13:37.687Z,30
2017-03-25T10:14:47.286Z,25
2017-03-25T10:15:57.059Z,25
2017-03-25T10:17:06.672Z,25
2017-03-25T10:18:16.582Z,25
2017-03-25T10:19:26.800Z,25
2017-03-25T10:20:36.700Z,25
2017-03-25T10:21:47.353Z,25
2017-03-25T10:22:57.569Z,25
2017-03-25T10:24:07.485Z,25
2017-03-25T10:25:17.715Z,25
2017-03-25T10:26:27.943Z,25
2017-03-25T10:27:37.645Z,25
2017-03-25T10:28:47.855Z,25
2017-03-25T10:29:57.451Z,25
2017-03-25T10:31:07.356Z,25
2017-03-25T10:32:17.279Z,25
2017-03-25T10:33:27.152Z,25
2017-03-25T10:34:36.761Z,25
2017-03-25T10:35:46.370Z,25
2017-03-25T10:36:56.316Z,25
2017-03-25T10:38:06.544Z,25
2017-03-25T10:39:16.600Z,30
2017-03-25T10:40:26.510Z,30
2017-03-25T10:41:36.727Z,30
2017-03-25T10:42:46.939Z,30
2017-03-25T10:43:56.853Z,30
2017-03-25T10:45:06.811Z,25
2017-03-25T10:46:16.426Z,25
2017-03-25T10:47:25.725Z,25
2017-03-25T10:48:35.652Z,25
2017-03-25T10:49:45.566Z,25
2017-03-25T10:50:55.351Z,25
2017-03-25T10:52:04.950Z,25
2017-03-25T10:53:14.853Z,25
2017-03-25T10:54:24.784Z,25
2017-03-25T10:55:33.781Z,30
2017-03-25T10:56:43.848Z,30
2017-03-25T10:57:53.457Z,30
2017-03-25T10:59:03.363Z,30
2017-03-25T11:00:13.280Z,30
2017-03-25T11:01:23.507Z,30
2017-03-25T11:02:33.551Z,30
2017-03-25T11:03:43.146Z,30
2017-03-25T11:04:53.066Z,30
2017-03-25T11:06:03.288Z,30
2017-03-25T11:07:13.497Z,30
2017-03-25T11:08:23.863Z,30
2017-03-25T11:09:33.773Z,30
2017-03-25T11:10:42.769Z,25
2017-03-25T11:11:52.685Z,25
2017-03-25T11:13:02.300Z,25
2017-03-25T11:14:12.457Z,25
2017-03-25T11:15:22.385Z,25
2017-03-25T11:16:32.303Z,25
2017-03-25T11:17:42.224Z,25
2017-03-25T11:18:52.144Z,25
2017-03-25T11:20:02.157Z,25
2017-03-25T11:21:12.119Z,25
2017-03-25T11:22:22.032Z,25
2017-03-25T11:23:31.934Z,25
2017-03-25T11:24:41.840Z,25
2017-03-25T11:25:52.312Z,25
2017-03-25T11:27:02.543Z,25
2017-03-25T11:28:12.476Z,25
2017-03-25T11:29:22.085Z,25
2017-03-25T11:30:32.374Z,25
2017-03-25T11:31:42.626Z,25
2017-03-25T11:32:52.543Z,25
2017-03-25T11:34:02.771Z,25
2017-03-25T11:35:12.996Z,25
2017-03-25T11:36:22.605Z,25
2017-03-25T11:37:32.702Z,25
2017-03-25T11:38:42.619Z,25
2017-03-25T11:39:52.570Z,25
2017-03-25T11:41:02.207Z,25
2017-03-25T11:42:11.821Z,25
2017-03-25T11:43:21.839Z,25
2017-03-25T11:44:31.757Z,25
2017-03-25T11:45:41.359Z,25
2017-03-25T11:46:50.664Z,25
2017-03-25T11:47:59.974Z,25
2017-03-25T11:49:10.452Z,25
2017-03-25T11:50:20.679Z,25
2017-03-25T11:51:30.912Z,25
2017-03-25T11:52:40.854Z,25
2017-03-25T11:53:51.084Z,25
2017-03-25T11:55:00.937Z,25
2017-03-25T11:56:10.842Z,25
2017-03-25T11:57:20.811Z,25
2017-03-25T11:58:31.028Z,25
2017-03-25T11:59:40.942Z,25
2017-03-25T12:00:50.390Z,25
2017-03-25T12:02:00.292Z,25
2017-03-25T12:03:10.208Z,25
2017-03-25T12:04:20.453Z,25
2017-03-25T12:05:30.079Z,25
2017-03-25T12:06:39.513Z,25
2017-03-25T12:07:49.737Z,25
2017-03-25T12:08:59.953Z,25
2017-03-25T12:10:09.258Z,25
2017-03-25T12:11:19.219Z,25
2017-03-25T12:12:29.418Z,25
2017-03-25T12:13:38.747Z,25
2017-03-25T12:14:48.993Z,25
2017-03-25T12:15:58.589Z,25
2017-03-25T12:17:08.202Z,25
2017-03-25T12:18:18.674Z,25
2017-03-25T12:19:28.594Z,25
2017-03-25T12:20:38.518Z,25
2017-03-25T12:21:48.645Z,25
2017-03-25T12:22:58.587Z,25
2017-03-25T12:24:08.817Z,25
2017-03-25T12:25:18.732Z,25
2017-03-25T12:26:28.639Z,25
2017-03-25T12:27:38.628Z,25
2017-03-25T12:28:48.262Z,25
2017-03-25T12:29:58.552Z,25
2017-03-25T12:31:08.826Z,25
2017-03-25T12:32:19.052Z,25
2017-03-25T12:33:28.963Z,20
2017-03-25T12:34:38.878Z,20
2017-03-25T12:35:48.887Z,20
2017-03-25T12:36:59.102Z,20
2017-03-25T12:38:09.314Z,20
2017-03-25T12:39:19.233Z,20
2017-03-25T12:40:29.153Z,20
2017-03-25T12:41:39.149Z,20
2017-03-25T12:42:48.757Z,20
2017-03-25T12:43:58.974Z,20
2017-03-25T12:45:08.889Z,20
2017-03-25T12:46:18.801Z,20
2017-03-25T12:47:28.954Z,20
2017-03-25T12:48:38.872Z,20
2017-03-25T12:49:48.475Z,20
2017-03-25T12:50:58.102Z,20
2017-03-25T12:52:07.752Z,20
2017-03-25T12:53:17.729Z,20
2017-03-25T12:54:27.958Z,20
2017-03-25T12:55:38.188Z,20
2017-03-25T12:56:48.104Z,20
2017-03-25T12:57:58.055Z,20
2017-03-25T12:59:08.587Z,20
2017-03-25T13:00:18.187Z,20
2017-03-25T13:01:28.402Z,20
2017-03-25T13:02:38.010Z,20
2017-03-25T13:03:48.241Z,20
2017-03-25T13:04:58.622Z,20
2017-03-25T13:06:09.220Z,20
2017-03-25T13:07:19.445Z,20
2017-03-25T13:08:29.054Z,20
2017-03-25T13:09:38.655Z,20
2017-03-25T13:10:48.107Z,20
2017-03-25T13:11:57.729Z,20
2017-03-25T13:13:07.952Z,20
2017-03-25T13:14:17.870Z,20
2017-03-25T13:15:28.087Z,20
2017-03-25T13:16:38.415Z,20
2017-03-25T13:17:48.028Z,20
2017-03-25T13:18:57.335Z,20
2017-03-25T13:20:07.252Z,20
2017-03-25T13:21:17.155Z,20
2017-03-25T13:22:27.221Z,20
2017-03-25T13:23:37.491Z,20
2017-03-25T13:24:47.081Z,20
2017-03-25T13:25:56.726Z,20
2017-03-25T13:27:06.641Z,20
2017-03-25T13:28:17.157Z,20
2017-03-25T13:29:27.085Z,20
2017-03-25T13:30:37.308Z,20
2017-03-25T13:31:46.606Z,20
2017-03-25T13:32:56.530Z,20
2017-03-25T13:34:06.297Z,20
2017-03-25T13:35:16.505Z,20
2017-03-25T13:36:26.746Z,20
2017-03-25T13:37:36.353Z,20
2017-03-25T13:38:46.578Z,20
2017-03-25T13:39:56.422Z,20
2017-03-25T13:41:06.019Z,20
2017-03-25T13:42:15.924Z,20
2017-03-25T13:43:26.153Z,20
2017-03-25T13:44:36.094Z,20
2017-03-25T13:45:46.256Z,20
2017-03-25T13:46:56.178Z,20
2017-03-25T13:48:06.097Z,20
2017-03-25T13:49:15.703Z,20
2017-03-25T13:50:25.608Z,20
2017-03-25T13:51:35.454Z,20
2017-03-25T13:52:45.364Z,20
2017-03-25T13:53:54.660Z,20
2017-03-25T13:55:04.267Z,20
2017-03-25T13:56:13.857Z,20
2017-03-25T13:57:25.891Z,20
2017-03-25T13:58:35.806Z,20
2017-03-25T13:59:46.045Z,20
2017-03-25T14:00:55.959Z,20
2017-03-25T14:02:06.183Z,20
2017-03-25T14:03:16.648Z,20
2017-03-25T14:04:26.254Z,20
2017-03-25T14:05:36.470Z,20
2017-03-25T14:06:46.073Z,20
2017-03-25T14:07:55.984Z,20
2017-03-25T14:09:06.358Z,20
2017-03-25T14:10:16.261Z,20
2017-03-25T14:11:26.482Z,20
2017-03-25T14:12:36.083Z,20
2017-03-25T14:13:46.302Z,20
2017-03-25T14:14:56.310Z,20
2017-03-25T14:16:05.908Z,20
2017-03-25T14:17:15.829Z,20
2017-03-25T14:18:25.131Z,20
2017-03-25T14:19:35.362Z,20
2017-03-25T14:20:46.326Z,20
2017-03-25T14:21:55.925Z,20
2017-03-25T14:23:06.156Z,20
2017-03-25T14:24:15.460Z,20
2017-03-25T14:25:25.690Z,20
2017-03-25T14:26:36.398Z,20
2017-03-25T14:27:45.711Z,20
2017-03-25T14:28:55.318Z,20
2017-03-25T14:30:05.542Z,20
2017-03-25T14:31:15.185Z,20
2017-03-25T14:32:25.718Z,20
2017-03-25T14:33:35.935Z,20
2017-03-25T14:34:45.849Z,20
2017-03-25T14:35:55.499Z,20
2017-03-25T14:37:05.408Z,20
2017-03-25T14:38:15.987Z,20
2017-03-25T14:39:25.608Z,20
2017-03-25T14:40:35.517Z,20
2017-03-25T14:41:45.745Z,20
2017-03-25T14:42:55.982Z,20
2017-03-25T14:44:06.521Z,20
2017-03-25T14:45:16.743Z,20
2017-03-25T14:46:26.379Z,20
2017-03-25T14:47:36.288Z,20
2017-03-25T14:48:46.536Z,20
2017-03-25T14:49:57.169Z,20
2017-03-25T14:51:07.119Z,20
2017-03-25T14:52:17.039Z,20
2017-03-25T14:53:26.648Z,20
2017-03-25T14:54:36.561Z,20
2017-03-25T14:55:46.123Z,20
2017-03-25T14:56:56.064Z,20
2017-03-25T14:58:05.790Z,20
2017-03-25T14:59:16.034Z,20
2017-03-25T15:00:25.959Z,20
2017-03-25T15:01:36.328Z,20
2017-03-25T15:02:46.553Z,20
2017-03-25T15:03:56.797Z,20
2017-03-25T15:05:06.715Z,20
2017-03-25T15:06:16.026Z,20
2017-03-25T15:07:26.307Z,20
2017-03-25T15:08:36.229Z,20
2017-03-25T15:09:46.445Z,20
2017-03-25T15:10:56.350Z,20
2017-03-25T15:12:06.274Z,20
2017-03-25T15:13:16.621Z,20
2017-03-25T15:14:26.545Z,20
2017-03-25T15:15:36.461Z,20
2017-03-25T15:16:46.678Z,20
2017-03-25T15:17:56.320Z,15
2017-03-25T15:19:06.408Z,15
2017-03-25T15:20:16.619Z,20
2017-03-25T15:21:26.557Z,20
2017-03-25T15:22:36.546Z,15
2017-03-25T15:23:46.539Z,15
2017-03-25T15:24:56.757Z,20
2017-03-25T15:26:06.672Z,20
2017-03-25T15:27:16.896Z,20
2017-03-25T15:28:26.819Z,20
2017-03-25T15:29:36.797Z,20
2017-03-25T15:30:46.840Z,20
2017-03-25T15:31:56.442Z,20
2017-03-25T15:33:06.358Z,20
2017-03-25T15:34:16.290Z,20
2017-03-25T15:35:26.507Z,20
2017-03-25T15:36:37.483Z,20
2017-03-25T15:37:47.405Z,20
2017-03-25T15:38:57.617Z,20
2017-03-25T15:40:07.515Z,20
2017-03-25T15:41:17.422Z,20
2017-03-25T15:42:27.521Z,20
2017-03-25T15:43:37.757Z,20
2017-03-25T15:44:47.675Z,20
2017-03-25T15:45:57.617Z,20
2017-03-25T15:47:07.526Z,20
2017-03-25T15:48:17.670Z,20
2017-03-25T15:49:27.014Z,20
2017-03-25T15:50:36.630Z,20
2017-03-25T15:51:46.544Z,20
2017-03-25T15:52:56.471Z,20
2017-03-25T15:54:06.186Z,20
2017-03-25T15:55:15.799Z,20
2017-03-25T15:56:25.729Z,20
2017-03-25T15:57:35.363Z,20
2017-03-25T15:58:45.277Z,20
2017-03-25T15:59:55.141Z,20
2017-03-25T16:01:05.090Z,20
2017-03-25T16:02:15.002Z,20
2017-03-25T16:03:24.613Z,20
2017-03-25T16:04:34.855Z,20
2017-03-25T16:05:45.107Z,20
2017-03-25T16:06:54.108Z,20
2017-03-25T16:08:03.455Z,20
2017-03-25T16:09:13.681Z,20
2017-03-25T16:10:23.588Z,20
2017-03-25T16:11:34.106Z,20
2017-03-25T16:12:44.027Z,20
2017-03-25T16:13:54.251Z,20
2017-03-25T16:15:04.484Z,20
2017-03-25T16:16:14.405Z,20
2017-03-25T16:17:24.659Z,20
2017-03-25T16:18:34.573Z,20
2017-03-25T16:19:44.181Z,20
2017-03-25T16:20:54.394Z,20
2017-03-25T16:22:04.614Z,20
2017-03-25T16:23:14.372Z,20
2017-03-25T16:24:24.610Z,20
2017-03-25T16:25:34.232Z,15
2017-03-25T16:26:43.837Z,15
2017-03-25T16:27:53.463Z,15
2017-03-25T16:29:03.636Z,15
2017-03-25T16:30:13.247Z,15
2017-03-25T16:31:23.166Z,15
2017-03-25T16:32:33.099Z,15
2017-03-25T16:33:43.025Z,15
2017-03-25T16:34:53.252Z,15
2017-03-25T16:36:03.220Z,15
2017-03-25T16:37:13.149Z,15
2017-03-25T16:38:22.766Z,15
2017-03-25T16:39:32.683Z,15
2017-03-25T16:40:42.705Z,15
2017-03-25T16:41:52.309Z,15
2017-03-25T16:43:01.639Z,15
2017-03-25T16:44:11.579Z,15
2017-03-25T16:45:21.210Z,15
2017-03-25T16:46:31.524Z,15
2017-03-25T16:47:41.135Z,15
2017-03-25T16:48:51.077Z,15
2017-03-25T16:50:00.998Z,10
2017-03-25T16:51:11.211Z,10